sensor_id;sensor_type;location;lat;lon;timestamp;temperature;humidity
79571;DHT22;69034;49.444;7.758;2024-03-23T00:56:03;13.10;53.20
79571;DHT22;69034;49.444;7.758;2024-03-23T01:00:05;13.10;53.40
79571;DHT22;69034;49.444;7.758;2024-03-23T01:04:06;13.10;53.40
79571;DHT22;69034;49.444;7.758;2024-03-23T01:08:07;13.10;53.40
79571;DHT22;69034;49.444;7.758;2024-03-23T01:12:07;13.10;53.60
79571;DHT22;69034;49.444;7.758;2024-03-23T01:16:08;13.10;53.70
79571;DHT22;69034;49.444;7.758;2024-03-23T01:20:09;13.00;53.70
79571;DHT22;69034;49.444;7.758;2024-03-23T01:24:09;13.00;53.80
79571;DHT22;69034;49.444;7.758;2024-03-23T01:28:11;13.00;53.90
79571;DHT22;69034;49.444;7.758;2024-03-23T01:32:11;12.90;53.90
79571;DHT22;69034;49.444;7.758;2024-03-23T01:36:12;12.90;53.90
79571;DHT22;69034;49.444;7.758;2024-03-23T01:40:13;12.90;54.40
79571;DHT22;69034;49.444;7.758;2024-03-23T01:44:16;13.00;54.40
79571;DHT22;69034;49.444;7.758;2024-03-23T01:48:17;13.20;54.40
79571;DHT22;69034;49.444;7.758;2024-03-23T01:52:18;13.30;54.40
79571;DHT22;69034;49.444;7.758;2024-03-23T01:56:19;13.30;54.30
79571;DHT22;69034;49.444;7.758;2024-03-23T02:00:19;13.40;54.30
79571;DHT22;69034;49.444;7.758;2024-03-23T02:04:20;13.40;54.20
79571;DHT22;69034;49.444;7.758;2024-03-23T02:08:22;13.40;54.20
79571;DHT22;69034;49.444;7.758;2024-03-23T02:12:23;13.50;54.30
79571;DHT22;69034;49.444;7.758;2024-03-23T02:16:24;13.50;54.30
79571;DHT22;69034;49.444;7.758;2024-03-23T02:20:25;13.50;54.30
79571;DHT22;69034;49.444;7.758;2024-03-23T02:24:25;13.60;54.30
79571;DHT22;69034;49.444;7.758;2024-03-23T02:28:26;13.60;54.30
79571;DHT22;69034;49.444;7.758;2024-03-23T02:32:26;13.60;54.40
79571;DHT22;69034;49.444;7.758;2024-03-23T02:36:28;13.60;54.40
79571;DHT22;69034;49.444;7.758;2024-03-23T02:40:29;13.40;54.50
79571;DHT22;69034;49.444;7.758;2024-03-23T02:44:32;13.40;54.70
79571;DHT22;69034;49.444;7.758;2024-03-23T02:48:33;13.30;54.80
79571;DHT22;69034;49.444;7.758;2024-03-23T02:52:33;13.20;54.90
79571;DHT22;69034;49.444;7.758;2024-03-23T02:56:34;13.20;55.00
79571;DHT22;69034;49.444;7.758;2024-03-23T03:00:35;13.20;55.10
79571;DHT22;69034;49.444;7.758;2024-03-23T03:04:36;13.20;55.10
79571;DHT22;69034;49.444;7.758;2024-03-23T03:08:37;13.20;55.20
79571;DHT22;69034;49.444;7.758;2024-03-23T03:12:37;13.20;55.40
79571;DHT22;69034;49.444;7.758;2024-03-23T03:16:38;13.20;55.50
79571;DHT22;69034;49.444;7.758;2024-03-23T03:20:39;13.30;55.70
79571;DHT22;69034;49.444;7.758;2024-03-23T03:24:40;13.30;56.00
79571;DHT22;69034;49.444;7.758;2024-03-23T03:28:41;13.30;56.20
79571;DHT22;69034;49.444;7.758;2024-03-23T03:32:41;13.30;56.30
79571;DHT22;69034;49.444;7.758;2024-03-23T03:36:42;13.30;56.30
79571;DHT22;69034;49.444;7.758;2024-03-23T03:40:43;13.30;56.30
79571;DHT22;69034;49.444;7.758;2024-03-23T03:44:43;13.30;56.50
79571;DHT22;69034;49.444;7.758;2024-03-23T03:48:44;13.30;56.60
79571;DHT22;69034;49.444;7.758;2024-03-23T03:52:46;13.30;56.50
79571;DHT22;69034;49.444;7.758;2024-03-23T03:56:47;13.30;56.60
79571;DHT22;69034;49.444;7.758;2024-03-23T04:00:48;13.30;57.00
79571;DHT22;69034;49.444;7.758;2024-03-23T04:04:48;13.30;57.20
79571;DHT22;69034;49.444;7.758;2024-03-23T04:08:49;13.30;57.40
79571;DHT22;69034;49.444;7.758;2024-03-23T04:12:49;13.20;57.60
79571;DHT22;69034;49.444;7.758;2024-03-23T04:16:51;13.20;57.80
79571;DHT22;69034;49.444;7.758;2024-03-23T04:20:51;13.20;58.00
79571;DHT22;69034;49.444;7.758;2024-03-23T04:24:58;13.10;58.30
79571;DHT22;69034;49.444;7.758;2024-03-23T04:28:58;13.10;58.80
79571;DHT22;69034;49.444;7.758;2024-03-23T04:32:59;13.10;58.90
79571;DHT22;69034;49.444;7.758;2024-03-23T04:37:01;13.00;59.00
79571;DHT22;69034;49.444;7.758;2024-03-23T04:41:01;13.00;59.30
79571;DHT22;69034;49.444;7.758;2024-03-23T04:45:03;13.00;59.50
79571;DHT22;69034;49.444;7.758;2024-03-23T04:49:03;12.90;59.80
79571;DHT22;69034;49.444;7.758;2024-03-23T04:53:04;12.90;59.70
79571;DHT22;69034;49.444;7.758;2024-03-23T04:57:05;12.80;59.70
79571;DHT22;69034;49.444;7.758;2024-03-23T05:01:06;12.80;60.40
79571;DHT22;69034;49.444;7.758;2024-03-23T05:05:07;12.70;60.40
79571;DHT22;69034;49.444;7.758;2024-03-23T05:09:07;12.60;60.10
79571;DHT22;69034;49.444;7.758;2024-03-23T05:13:12;12.60;59.90
79571;DHT22;69034;49.444;7.758;2024-03-23T05:17:12;12.60;59.80
79571;DHT22;69034;49.444;7.758;2024-03-23T05:21:13;12.50;59.70
79571;DHT22;69034;49.444;7.758;2024-03-23T05:25:13;12.50;60.00
79571;DHT22;69034;49.444;7.758;2024-03-23T05:29:16;12.70;59.80
79571;DHT22;69034;49.444;7.758;2024-03-23T05:33:19;12.80;59.60
79571;DHT22;69034;49.444;7.758;2024-03-23T05:37:19;12.90;59.30
79571;DHT22;69034;49.444;7.758;2024-03-23T05:41:20;13.00;59.10
79571;DHT22;69034;49.444;7.758;2024-03-23T05:45:21;13.10;58.90
79571;DHT22;69034;49.444;7.758;2024-03-23T05:49:22;13.10;58.70
79571;DHT22;69034;49.444;7.758;2024-03-23T05:53:23;13.20;58.50
79571;DHT22;69034;49.444;7.758;2024-03-23T05:57:24;13.20;58.40
79571;DHT22;69034;49.444;7.758;2024-03-23T06:01:26;13.20;58.20
79571;DHT22;69034;49.444;7.758;2024-03-23T06:05:29;13.30;58.00
79571;DHT22;69034;49.444;7.758;2024-03-23T06:09:29;13.30;57.70
79571;DHT22;69034;49.444;7.758;2024-03-23T06:13:32;13.40;57.60
79571;DHT22;69034;49.444;7.758;2024-03-23T06:17:34;13.40;57.40
79571;DHT22;69034;49.444;7.758;2024-03-23T06:21:34;13.50;57.20
79571;DHT22;69034;49.444;7.758;2024-03-23T06:25:35;13.50;56.90
79571;DHT22;69034;49.444;7.758;2024-03-23T06:29:36;13.40;56.80
79571;DHT22;69034;49.444;7.758;2024-03-23T06:33:37;13.30;56.90
79571;DHT22;69034;49.444;7.758;2024-03-23T06:37:38;13.30;56.70
79571;DHT22;69034;49.444;7.758;2024-03-23T06:41:39;13.30;56.80
79571;DHT22;69034;49.444;7.758;2024-03-23T06:45:39;13.20;56.70
79571;DHT22;69034;49.444;7.758;2024-03-23T06:49:40;13.30;56.50
79571;DHT22;69034;49.444;7.758;2024-03-23T06:53:41;13.60;58.90
79571;DHT22;69034;49.444;7.758;2024-03-23T06:57:41;14.20;57.50
79571;DHT22;69034;49.444;7.758;2024-03-23T07:01:42;14.30;57.70
79571;DHT22;69034;49.444;7.758;2024-03-23T07:05:43;14.70;57.00
79571;DHT22;69034;49.444;7.758;2024-03-23T07:09:43;14.70;56.70
79571;DHT22;69034;49.444;7.758;2024-03-23T07:13:44;14.40;56.80
79571;DHT22;69034;49.444;7.758;2024-03-23T07:17:49;14.40;56.40
79571;DHT22;69034;49.444;7.758;2024-03-23T07:21:50;14.20;56.10
79571;DHT22;69034;49.444;7.758;2024-03-23T07:26:01;14.20;55.60
79571;DHT22;69034;49.444;7.758;2024-03-23T07:30:02;14.20;55.30
79571;DHT22;69034;49.444;7.758;2024-03-23T07:34:03;14.20;54.90
79571;DHT22;69034;49.444;7.758;2024-03-23T07:38:04;14.60;54.10
79571;DHT22;69034;49.444;7.758;2024-03-23T07:42:06;14.70;53.70
79571;DHT22;69034;49.444;7.758;2024-03-23T07:46:07;14.90;53.30
79571;DHT22;69034;49.444;7.758;2024-03-23T07:50:08;15.30;52.60
79571;DHT22;69034;49.444;7.758;2024-03-23T07:54:09;15.60;52.20
79571;DHT22;69034;49.444;7.758;2024-03-23T07:58:09;15.70;51.80
79571;DHT22;69034;49.444;7.758;2024-03-23T08:02:10;15.80;51.30
79571;DHT22;69034;49.444;7.758;2024-03-23T08:06:12;16.20;50.10
79571;DHT22;69034;49.444;7.758;2024-03-23T08:10:13;16.30;49.60
79571;DHT22;69034;49.444;7.758;2024-03-23T08:14:13;16.50;49.50
79571;DHT22;69034;49.444;7.758;2024-03-23T08:18:14;16.50;49.40
79571;DHT22;69034;49.444;7.758;2024-03-23T08:22:17;16.50;49.30
79571;DHT22;69034;49.444;7.758;2024-03-23T08:26:18;16.20;49.30
79571;DHT22;69034;49.444;7.758;2024-03-23T08:30:18;16.40;48.50
79571;DHT22;69034;49.444;7.758;2024-03-23T08:34:19;16.70;48.30
79571;DHT22;69034;49.444;7.758;2024-03-23T08:38:19;16.70;48.20
79571;DHT22;69034;49.444;7.758;2024-03-23T08:42:20;16.70;48.10
79571;DHT22;69034;49.444;7.758;2024-03-23T08:46:21;16.80;47.60
79571;DHT22;69034;49.444;7.758;2024-03-23T08:50:21;16.90;47.30
79571;DHT22;69034;49.444;7.758;2024-03-23T08:54:22;17.60;46.40
79571;DHT22;69034;49.444;7.758;2024-03-23T08:58:24;17.60;46.30
79571;DHT22;69034;49.444;7.758;2024-03-23T09:02:25;18.00;45.80
79571;DHT22;69034;49.444;7.758;2024-03-23T09:06:26;18.20;45.70
79571;DHT22;69034;49.444;7.758;2024-03-23T09:10:26;18.30;45.30
79571;DHT22;69034;49.444;7.758;2024-03-23T09:14:27;18.80;44.60
79571;DHT22;69034;49.444;7.758;2024-03-23T09:18:27;19.30;44.00
79571;DHT22;69034;49.444;7.758;2024-03-23T09:22:28;19.60;43.10
79571;DHT22;69034;49.444;7.758;2024-03-23T09:26:29;19.80;42.70
79571;DHT22;69034;49.444;7.758;2024-03-23T09:30:30;19.70;42.60
79571;DHT22;69034;49.444;7.758;2024-03-23T09:34:30;19.70;42.20
79571;DHT22;69034;49.444;7.758;2024-03-23T09:38:31;19.80;41.90
79571;DHT22;69034;49.444;7.758;2024-03-23T09:42:32;19.80;41.70
79571;DHT22;69034;49.444;7.758;2024-03-23T09:46:33;19.60;41.50
79571;DHT22;69034;49.444;7.758;2024-03-23T09:50:40;19.40;41.60
79571;DHT22;69034;49.444;7.758;2024-03-23T09:54:41;19.00;41.80
79571;DHT22;69034;49.444;7.758;2024-03-23T09:58:41;19.30;41.40
79571;DHT22;69034;49.444;7.758;2024-03-23T10:02:42;19.80;40.90
79571;DHT22;69034;49.444;7.758;2024-03-23T10:06:43;20.30;40.30
79571;DHT22;69034;49.444;7.758;2024-03-23T10:10:44;20.40;40.10
79571;DHT22;69034;49.444;7.758;2024-03-23T10:14:45;20.40;39.70
79571;DHT22;69034;49.444;7.758;2024-03-23T10:18:46;20.40;39.30
79571;DHT22;69034;49.444;7.758;2024-03-23T10:22:47;20.50;39.10
79571;DHT22;69034;49.444;7.758;2024-03-23T10:26:56;20.90;38.60
79571;DHT22;69034;49.444;7.758;2024-03-23T10:30:57;20.90;38.40
79571;DHT22;69034;49.444;7.758;2024-03-23T10:35:16;20.90;38.00
79571;DHT22;69034;49.444;7.758;2024-03-23T10:39:20;21.40;37.40
79571;DHT22;69034;49.444;7.758;2024-03-23T10:43:22;22.00;36.70
79571;DHT22;69034;49.444;7.758;2024-03-23T10:47:22;21.70;36.80
79571;DHT22;69034;49.444;7.758;2024-03-23T10:51:23;20.90;36.70
79571;DHT22;69034;49.444;7.758;2024-03-23T10:55:24;20.40;36.50
79571;DHT22;69034;49.444;7.758;2024-03-23T10:59:25;19.70;37.70
79571;DHT22;69034;49.444;7.758;2024-03-23T11:03:34;19.30;38.50
79571;DHT22;69034;49.444;7.758;2024-03-23T11:07:36;19.90;38.60
79571;DHT22;69034;49.444;7.758;2024-03-23T11:11:37;20.50;37.60
79571;DHT22;69034;49.444;7.758;2024-03-23T11:15:38;21.90;36.70
79571;DHT22;69034;49.444;7.758;2024-03-23T11:19:38;23.90;34.10
79571;DHT22;69034;49.444;7.758;2024-03-23T11:23:39;23.50;35.00
79571;DHT22;69034;49.444;7.758;2024-03-23T11:27:40;22.90;39.00
79571;DHT22;69034;49.444;7.758;2024-03-23T11:31:48;22.50;40.80
79571;DHT22;69034;49.444;7.758;2024-03-23T11:35:48;22.00;42.00
79571;DHT22;69034;49.444;7.758;2024-03-23T11:39:49;21.10;43.80
79571;DHT22;69034;49.444;7.758;2024-03-23T11:43:49;20.40;43.50
79571;DHT22;69034;49.444;7.758;2024-03-23T11:48:05;20.00;43.00
79571;DHT22;69034;49.444;7.758;2024-03-23T11:52:07;22.70;39.40
79571;DHT22;69034;49.444;7.758;2024-03-23T11:56:08;25.50;37.50
79571;DHT22;69034;49.444;7.758;2024-03-23T12:00:21;25.00;37.20
79571;DHT22;69034;49.444;7.758;2024-03-23T12:04:26;24.50;37.80
79571;DHT22;69034;49.444;7.758;2024-03-23T12:08:34;23.20;38.70
79571;DHT22;69034;49.444;7.758;2024-03-23T12:12:35;21.80;40.10
79571;DHT22;69034;49.444;7.758;2024-03-23T12:16:35;20.50;42.00
79571;DHT22;69034;49.444;7.758;2024-03-23T12:20:37;19.40;42.30
79571;DHT22;69034;49.444;7.758;2024-03-23T12:24:38;18.80;42.50
79571;DHT22;69034;49.444;7.758;2024-03-23T12:28:45;19.40;41.40
79571;DHT22;69034;49.444;7.758;2024-03-23T12:32:45;24.30;35.30
79571;DHT22;69034;49.444;7.758;2024-03-23T12:36:46;27.10;32.60
79571;DHT22;69034;49.444;7.758;2024-03-23T12:40:47;27.70;33.50
79571;DHT22;69034;49.444;7.758;2024-03-23T12:44:48;28.60;32.40
79571;DHT22;69034;49.444;7.758;2024-03-23T12:48:50;29.30;32.80
79571;DHT22;69034;49.444;7.758;2024-03-23T12:52:50;31.10;31.60
79571;DHT22;69034;49.444;7.758;2024-03-23T12:56:51;32.40;30.20
79571;DHT22;69034;49.444;7.758;2024-03-23T13:00:52;33.40;29.80
79571;DHT22;69034;49.444;7.758;2024-03-23T13:04:53;34.20;29.30
79571;DHT22;69034;49.444;7.758;2024-03-23T13:08:53;35.50;28.50
79571;DHT22;69034;49.444;7.758;2024-03-23T13:12:55;36.30;28.10
79571;DHT22;69034;49.444;7.758;2024-03-23T13:16:55;35.40;26.80
79571;DHT22;69034;49.444;7.758;2024-03-23T13:20:56;33.70;28.10
79571;DHT22;69034;49.444;7.758;2024-03-23T13:24:57;33.40;27.60
79571;DHT22;69034;49.444;7.758;2024-03-23T13:28:57;34.10;27.50
79571;DHT22;69034;49.444;7.758;2024-03-23T13:32:58;33.40;25.80
79571;DHT22;69034;49.444;7.758;2024-03-23T13:36:59;32.30;26.40
79571;DHT22;69034;49.444;7.758;2024-03-23T13:41:00;34.40;25.80
79571;DHT22;69034;49.444;7.758;2024-03-23T13:45:01;35.90;24.80
79571;DHT22;69034;49.444;7.758;2024-03-23T13:49:01;37.10;19.60
79571;DHT22;69034;49.444;7.758;2024-03-23T13:53:02;36.70;18.10
79571;DHT22;69034;49.444;7.758;2024-03-23T13:57:03;35.50;19.90
79571;DHT22;69034;49.444;7.758;2024-03-23T14:01:03;37.00;19.00
79571;DHT22;69034;49.444;7.758;2024-03-23T14:05:04;36.90;18.00
79571;DHT22;69034;49.444;7.758;2024-03-23T14:09:06;37.00;18.50
79571;DHT22;69034;49.444;7.758;2024-03-23T14:13:09;38.00;18.00
79571;DHT22;69034;49.444;7.758;2024-03-23T14:17:09;38.60;17.60
79571;DHT22;69034;49.444;7.758;2024-03-23T14:21:12;38.70;17.10
79571;DHT22;69034;49.444;7.758;2024-03-23T14:25:13;37.40;16.60
79571;DHT22;69034;49.444;7.758;2024-03-23T14:29:13;37.70;16.40
79571;DHT22;69034;49.444;7.758;2024-03-23T14:33:14;36.00;16.30
79571;DHT22;69034;49.444;7.758;2024-03-23T14:37:14;33.40;16.90
79571;DHT22;69034;49.444;7.758;2024-03-23T14:41:16;30.60;18.40
79571;DHT22;69034;49.444;7.758;2024-03-23T14:45:16;28.50;19.70
79571;DHT22;69034;49.444;7.758;2024-03-23T14:49:17;26.80;24.80
79571;DHT22;69034;49.444;7.758;2024-03-23T14:53:18;25.30;26.00
79571;DHT22;69034;49.444;7.758;2024-03-23T14:57:18;24.10;27.50
79571;DHT22;69034;49.444;7.758;2024-03-23T15:01:20;22.80;29.00
79571;DHT22;69034;49.444;7.758;2024-03-23T15:05:21;21.60;30.30
79571;DHT22;69034;49.444;7.758;2024-03-23T15:09:21;20.70;31.60
79571;DHT22;69034;49.444;7.758;2024-03-23T15:13:22;20.40;31.70
79571;DHT22;69034;49.444;7.758;2024-03-23T15:17:26;24.00;29.40
79571;DHT22;69034;49.444;7.758;2024-03-23T15:21:26;27.00;27.20
79571;DHT22;69034;49.444;7.758;2024-03-23T15:25:27;28.80;26.40
79571;DHT22;69034;49.444;7.758;2024-03-23T15:29:27;30.30;26.00
79571;DHT22;69034;49.444;7.758;2024-03-23T15:33:28;31.40;25.70
79571;DHT22;69034;49.444;7.758;2024-03-23T15:37:31;32.50;25.20
79571;DHT22;69034;49.444;7.758;2024-03-23T15:41:32;32.20;25.00
79571;DHT22;69034;49.444;7.758;2024-03-23T15:45:34;29.60;27.00
79571;DHT22;69034;49.444;7.758;2024-03-23T15:49:35;27.50;28.20
79571;DHT22;69034;49.444;7.758;2024-03-23T15:53:36;25.90;29.20
79571;DHT22;69034;49.444;7.758;2024-03-23T15:57:37;24.60;30.20
79571;DHT22;69034;49.444;7.758;2024-03-23T16:01:37;23.40;31.30
79571;DHT22;69034;49.444;7.758;2024-03-23T16:05:39;22.40;32.40
79571;DHT22;69034;49.444;7.758;2024-03-23T16:09:39;21.40;33.80
79571;DHT22;69034;49.444;7.758;2024-03-23T16:13:40;20.60;34.30
79571;DHT22;69034;49.444;7.758;2024-03-23T16:17:41;19.90;34.90
79571;DHT22;69034;49.444;7.758;2024-03-23T16:21:41;19.50;35.60
79571;DHT22;69034;49.444;7.758;2024-03-23T16:25:52;19.00;36.20
79571;DHT22;69034;49.444;7.758;2024-03-23T16:29:57;18.60;36.80
79571;DHT22;69034;49.444;7.758;2024-03-23T16:33:59;18.20;37.30
79571;DHT22;69034;49.444;7.758;2024-03-23T16:37:59;17.90;37.70
79571;DHT22;69034;49.444;7.758;2024-03-23T16:42:00;17.80;38.20
79571;DHT22;69034;49.444;7.758;2024-03-23T16:46:08;17.80;38.30
79571;DHT22;69034;49.444;7.758;2024-03-23T16:50:11;17.80;38.30
79571;DHT22;69034;49.444;7.758;2024-03-23T16:54:11;17.70;38.70
79571;DHT22;69034;49.444;7.758;2024-03-23T16:58:12;17.60;39.20
79571;DHT22;69034;49.444;7.758;2024-03-23T17:02:13;17.40;39.40
79571;DHT22;69034;49.444;7.758;2024-03-23T17:06:14;17.30;39.40
79571;DHT22;69034;49.444;7.758;2024-03-23T17:10:15;17.20;39.70
79571;DHT22;69034;49.444;7.758;2024-03-23T17:14:16;17.10;39.70
79571;DHT22;69034;49.444;7.758;2024-03-23T17:18:16;16.90;40.70
79571;DHT22;69034;49.444;7.758;2024-03-23T17:22:17;16.90;41.30
79571;DHT22;69034;49.444;7.758;2024-03-23T17:26:17;17.10;43.20
79571;DHT22;69034;49.444;7.758;2024-03-23T17:30:20;17.30;43.80
79571;DHT22;69034;49.444;7.758;2024-03-23T17:34:23;17.10;44.00
79571;DHT22;69034;49.444;7.758;2024-03-23T17:38:25;16.80;44.10
79571;DHT22;69034;49.444;7.758;2024-03-23T17:42:25;16.60;44.20
79571;DHT22;69034;49.444;7.758;2024-03-23T17:46:26;16.30;44.40
79571;DHT22;69034;49.444;7.758;2024-03-23T17:50:27;16.10;44.40
79571;DHT22;69034;49.444;7.758;2024-03-23T17:54:27;15.90;44.40
79571;DHT22;69034;49.444;7.758;2024-03-23T17:58:30;15.70;44.60
79571;DHT22;69034;49.444;7.758;2024-03-23T18:02:30;15.50;44.70
79571;DHT22;69034;49.444;7.758;2024-03-23T18:06:31;15.30;44.70
79571;DHT22;69034;49.444;7.758;2024-03-23T18:10:32;14.90;45.10
79571;DHT22;69034;49.444;7.758;2024-03-23T18:14:32;14.70;45.20
79571;DHT22;69034;49.444;7.758;2024-03-23T18:18:33;14.40;45.30
79571;DHT22;69034;49.444;7.758;2024-03-23T18:22:34;14.60;46.50
79571;DHT22;69034;49.444;7.758;2024-03-23T18:26:34;14.40;46.30
79571;DHT22;69034;49.444;7.758;2024-03-23T18:30:35;14.10;46.60
79571;DHT22;69034;49.444;7.758;2024-03-23T18:34:36;13.80;46.80
79571;DHT22;69034;49.444;7.758;2024-03-23T18:38:37;13.50;46.80
79571;DHT22;69034;49.444;7.758;2024-03-23T18:42:41;13.30;46.90
79571;DHT22;69034;49.444;7.758;2024-03-23T18:46:41;13.10;47.10
79571;DHT22;69034;49.444;7.758;2024-03-23T18:50:43;13.00;47.10
79571;DHT22;69034;49.444;7.758;2024-03-23T18:54:43;12.80;47.20
79571;DHT22;69034;49.444;7.758;2024-03-23T18:58:44;12.70;47.30
79571;DHT22;69034;49.444;7.758;2024-03-23T19:02:44;12.60;47.40
79571;DHT22;69034;49.444;7.758;2024-03-23T19:06:45;12.70;49.00
79571;DHT22;69034;49.444;7.758;2024-03-23T19:10:56;12.70;48.60
79571;DHT22;69034;49.444;7.758;2024-03-23T19:14:57;12.60;48.70
79571;DHT22;69034;49.444;7.758;2024-03-23T19:18:57;12.40;49.10
79571;DHT22;69034;49.444;7.758;2024-03-23T19:22:59;12.30;49.10
79571;DHT22;69034;49.444;7.758;2024-03-23T19:27:00;12.40;49.80
79571;DHT22;69034;49.444;7.758;2024-03-23T19:31:02;12.40;49.90
79571;DHT22;69034;49.444;7.758;2024-03-23T19:35:03;12.30;49.70
79571;DHT22;69034;49.444;7.758;2024-03-23T19:39:04;12.20;49.80
79571;DHT22;69034;49.444;7.758;2024-03-23T19:43:05;12.10;49.90
79571;DHT22;69034;49.444;7.758;2024-03-23T19:47:06;12.00;49.90
79571;DHT22;69034;49.444;7.758;2024-03-23T19:51:07;11.90;49.90
79571;DHT22;69034;49.444;7.758;2024-03-23T19:55:08;11.80;49.90
79571;DHT22;69034;49.444;7.758;2024-03-23T19:59:09;11.80;49.80
79571;DHT22;69034;49.444;7.758;2024-03-23T20:03:11;11.70;49.90
79571;DHT22;69034;49.444;7.758;2024-03-23T20:07:11;11.70;50.00
79571;DHT22;69034;49.444;7.758;2024-03-23T20:11:12;11.60;50.00
79571;DHT22;69034;49.444;7.758;2024-03-23T20:15:13;11.60;50.00
79571;DHT22;69034;49.444;7.758;2024-03-23T20:19:14;11.60;50.60
79571;DHT22;69034;49.444;7.758;2024-03-23T20:23:15;11.70;50.90
79571;DHT22;69034;49.444;7.758;2024-03-23T20:27:15;11.90;50.70
79571;DHT22;69034;49.444;7.758;2024-03-23T20:31:16;12.00;50.70
79571;DHT22;69034;49.444;7.758;2024-03-23T20:35:16;12.00;50.60
79571;DHT22;69034;49.444;7.758;2024-03-23T20:39:17;12.20;52.30
79571;DHT22;69034;49.444;7.758;2024-03-23T20:43:18;12.60;53.10
79571;DHT22;69034;49.444;7.758;2024-03-23T20:47:18;12.60;52.90
79571;DHT22;69034;49.444;7.758;2024-03-23T20:51:19;12.50;52.90
79571;DHT22;69034;49.444;7.758;2024-03-23T20:55:21;12.40;52.70
79571;DHT22;69034;49.444;7.758;2024-03-23T20:59:22;12.40;52.50
79571;DHT22;69034;49.444;7.758;2024-03-23T21:03:23;12.30;52.40
79571;DHT22;69034;49.444;7.758;2024-03-23T21:07:23;12.30;52.30
79571;DHT22;69034;49.444;7.758;2024-03-23T21:11:26;12.10;52.10
79571;DHT22;69034;49.444;7.758;2024-03-23T21:15:27;11.80;52.10
79571;DHT22;69034;49.444;7.758;2024-03-23T21:19:28;11.70;52.10
79571;DHT22;69034;49.444;7.758;2024-03-23T21:23:30;11.50;52.10
79571;DHT22;69034;49.444;7.758;2024-03-23T21:27:35;11.40;52.10
79571;DHT22;69034;49.444;7.758;2024-03-23T21:31:35;11.30;52.10
79571;DHT22;69034;49.444;7.758;2024-03-23T21:35:36;11.10;52.10
79571;DHT22;69034;49.444;7.758;2024-03-23T21:39:36;11.10;52.30
79571;DHT22;69034;49.444;7.758;2024-03-23T21:43:37;12.60;57.10
79571;DHT22;69034;49.444;7.758;2024-03-23T21:47:38;12.70;54.90
79571;DHT22;69034;49.444;7.758;2024-03-23T21:51:38;12.30;54.90
79571;DHT22;69034;49.444;7.758;2024-03-23T21:55:50;11.90;55.20
79571;DHT22;69034;49.444;7.758;2024-03-23T21:59:51;11.70;55.30
79571;DHT22;69034;49.444;7.758;2024-03-23T22:03:52;11.50;55.10
79571;DHT22;69034;49.444;7.758;2024-03-23T22:07:52;11.30;55.00
79571;DHT22;69034;49.444;7.758;2024-03-23T22:11:53;11.20;54.90
79571;DHT22;69034;49.444;7.758;2024-03-23T22:16:00;11.10;54.60
79571;DHT22;69034;49.444;7.758;2024-03-23T22:20:01;11.00;54.60
79571;DHT22;69034;49.444;7.758;2024-03-23T22:24:01;10.90;54.60
79571;DHT22;69034;49.444;7.758;2024-03-23T22:28:03;10.90;54.60
79571;DHT22;69034;49.444;7.758;2024-03-23T22:32:04;10.80;54.60
79571;DHT22;69034;49.444;7.758;2024-03-23T22:36:05;10.70;54.90
79571;DHT22;69034;49.444;7.758;2024-03-23T22:40:06;11.40;55.80
79571;DHT22;69034;49.444;7.758;2024-03-23T22:44:07;11.40;55.50
79571;DHT22;69034;49.444;7.758;2024-03-23T22:48:07;11.20;55.60
79571;DHT22;69034;49.444;7.758;2024-03-23T22:52:09;11.10;55.80
79571;DHT22;69034;49.444;7.758;2024-03-23T22:56:09;11.00;55.90
79571;DHT22;69034;49.444;7.758;2024-03-23T23:00:10;10.80;55.80
79571;DHT22;69034;49.444;7.758;2024-03-23T23:04:11;10.80;55.80
79571;DHT22;69034;49.444;7.758;2024-03-23T23:08:12;10.80;57.90
79571;DHT22;69034;49.444;7.758;2024-03-23T23:12:13;11.50;57.00
79571;DHT22;69034;49.444;7.758;2024-03-23T23:16:14;11.40;57.20
79571;DHT22;69034;49.444;7.758;2024-03-23T23:20:15;11.10;57.30
79571;DHT22;69034;49.444;7.758;2024-03-23T23:24:16;11.00;57.20
79571;DHT22;69034;49.444;7.758;2024-03-23T23:28:16;10.90;57.20
79571;DHT22;69034;49.444;7.758;2024-03-23T23:32:17;10.90;57.90
79571;DHT22;69034;49.444;7.758;2024-03-23T23:36:18;11.00;57.30
79571;DHT22;69034;49.444;7.758;2024-03-23T23:40:19;10.80;57.20
79571;DHT22;69034;49.444;7.758;2024-03-23T23:44:19;10.70;57.10
79571;DHT22;69034;49.444;7.758;2024-03-23T23:48:20;10.60;57.10
79571;DHT22;69034;49.444;7.758;2024-03-23T23:52:21;10.50;57.10
79571;DHT22;69034;49.444;7.758;2024-03-23T23:56:21;10.40;57.00
